createdAt,value
2018-12-09T00:01:42.854Z,9.70
2018-12-09T00:04:30.121Z,9.70
2018-12-09T00:06:58.513Z,9.60
2018-12-09T00:12:28.510Z,9.70
2018-12-09T00:14:56.936Z,9.80
2018-12-09T00:17:25.318Z,9.80
2018-12-09T00:19:53.686Z,9.80
2018-12-09T00:22:36.258Z,9.80
2018-12-09T00:25:18.837Z,9.80
2018-12-09T00:30:46.193Z,10.10
2018-12-09T00:33:14.602Z,10.20
2018-12-09T00:38:36.014Z,10.20
2018-12-09T00:41:10.012Z,10.10
2018-12-09T00:44:01.220Z,10.10
2018-12-09T00:46:29.573Z,10.10
2018-12-09T00:49:10.397Z,10.10
2018-12-09T00:54:07.768Z,10.10
2018-12-09T00:59:35.012Z,10.10
2018-12-09T01:07:36.959Z,10.20
2018-12-09T01:13:04.074Z,10.10
2018-12-09T01:18:04.468Z,10.00
2018-12-09T01:20:40.124Z,9.90
2018-12-09T01:23:27.493Z,10.00
2018-12-09T01:25:58.892Z,10.00
2018-12-09T01:28:47.672Z,10.00
2018-12-09T01:31:16.052Z,10.00
2018-12-09T01:33:48.074Z,10.10
2018-12-09T01:36:16.445Z,10.00
2018-12-09T01:39:01.092Z,10.30
2018-12-09T01:44:29.416Z,10.10
2018-12-09T01:46:57.756Z,10.50
2018-12-09T01:49:34.648Z,10.40
2018-12-09T01:52:03.426Z,10.40
2018-12-09T01:59:56.636Z,10.50
2018-12-09T02:04:56.324Z,10.50
2018-12-09T02:09:55.020Z,10.70
2018-12-09T02:15:21.992Z,10.60
2018-12-09T02:18:02.298Z,10.50
2018-12-09T02:20:44.941Z,10.30
2018-12-09T02:23:13.747Z,10.20
2018-12-09T02:25:42.124Z,10.10
2018-12-09T02:28:22.944Z,10.10
2018-12-09T02:30:54.648Z,10.00
2018-12-09T02:38:32.505Z,9.70
2018-12-09T02:51:34.973Z,8.90
2018-12-09T02:57:02.724Z,8.90
2018-12-09T03:02:29.835Z,8.90
2018-12-09T03:07:56.827Z,9.10
2018-12-09T03:12:54.586Z,8.90
2018-12-09T03:15:23.068Z,8.60
2018-12-09T03:20:50.711Z,8.60
2018-12-09T03:26:11.266Z,8.40
2018-12-09T03:28:52.516Z,8.60
2018-12-09T03:31:41.306Z,8.60
2018-12-09T03:36:51.545Z,8.70
2018-12-09T03:42:01.581Z,8.60
2018-12-09T03:49:31.698Z,8.60
2018-12-09T03:54:59.060Z,8.80
2018-12-09T03:57:45.689Z,8.80
2018-12-09T04:00:31.238Z,8.80
2018-12-09T04:05:58.414Z,8.80
2018-12-09T04:08:29.941Z,8.80
2018-12-09T04:14:05.478Z,8.90
2018-12-09T04:19:30.272Z,8.90
2018-12-09T04:21:58.625Z,8.90
2018-12-09T09:24:42.083Z,9.10
2018-12-09T09:27:10.469Z,9.10
2018-12-09T09:29:38.821Z,9.10
2018-12-09T09:32:07.253Z,9.00
2018-12-09T09:34:35.605Z,9.00
2018-12-09T09:37:04.005Z,9.00
2018-12-09T09:39:32.417Z,8.90
2018-12-09T09:42:00.806Z,8.80
2018-12-09T09:44:29.169Z,8.70
2018-12-09T09:46:57.570Z,8.80
2018-12-09T09:49:26.064Z,8.60
2018-12-09T09:51:54.440Z,8.50
2018-12-09T09:54:22.794Z,8.30
2018-12-09T09:56:51.192Z,8.20
2018-12-09T09:59:19.594Z,8.10
2018-12-09T10:01:47.969Z,8.10
2018-12-09T10:04:16.352Z,8.10
2018-12-09T10:06:44.745Z,8.00
2018-12-09T10:09:13.137Z,7.90
2018-12-09T10:11:41.531Z,7.80
2018-12-09T10:14:09.905Z,7.80
2018-12-09T10:16:38.294Z,7.80
2018-12-09T10:19:06.668Z,7.80
2018-12-09T10:21:35.040Z,7.80
2018-12-09T10:24:03.443Z,7.80
2018-12-09T10:26:36.437Z,8.00
2018-12-09T10:29:02.233Z,7.90
2018-12-09T10:31:30.674Z,7.90
2018-12-09T10:33:59.065Z,7.90
2018-12-09T10:36:27.443Z,7.90
2018-12-09T10:38:55.838Z,7.80
2018-12-09T10:41:24.201Z,7.80
2018-12-09T10:43:52.576Z,7.90
2018-12-09T10:46:21.886Z,7.90
2018-12-09T10:48:50.458Z,7.80
2018-12-09T10:51:18.815Z,7.80
2018-12-09T10:53:47.193Z,7.80
2018-12-09T10:56:15.542Z,7.80
2018-12-09T10:58:43.935Z,7.90
2018-12-09T11:01:17.645Z,8.00
2018-12-09T11:03:46.034Z,8.00
2018-12-09T11:06:14.596Z,7.90
2018-12-09T11:08:43.000Z,8.00
2018-12-09T11:11:11.379Z,8.00
2018-12-09T11:13:39.762Z,7.90
2018-12-09T11:16:08.135Z,7.90
2018-12-09T11:18:36.521Z,7.90
2018-12-09T11:21:05.003Z,7.80
2018-12-09T11:23:33.382Z,7.80
2018-12-09T11:26:01.845Z,7.80
2018-12-09T11:28:30.222Z,7.80
2018-12-09T11:30:58.579Z,7.80
2018-12-09T11:33:26.978Z,7.70
2018-12-09T11:35:55.340Z,7.60
2018-12-09T11:38:23.709Z,7.50
2018-12-09T11:40:52.065Z,7.50
2018-12-09T11:43:20.440Z,7.40
2018-12-09T11:45:48.793Z,7.50
2018-12-09T11:48:17.172Z,7.50
2018-12-09T11:50:45.598Z,7.40
2018-12-09T11:53:14.051Z,7.40
2018-12-09T11:55:42.421Z,7.40
2018-12-09T11:58:10.813Z,7.50
2018-12-09T12:00:39.286Z,7.40
2018-12-09T12:03:07.669Z,7.50
2018-12-09T12:05:36.016Z,7.50
2018-12-09T12:08:04.401Z,7.50
2018-12-09T12:10:32.753Z,7.50
2018-12-09T12:13:01.141Z,7.50
2018-12-09T12:15:29.486Z,7.50
2018-12-09T12:17:57.865Z,7.50
2018-12-09T12:20:26.224Z,7.50
2018-12-09T12:22:54.593Z,7.50
2018-12-09T12:25:22.981Z,7.60
2018-12-09T12:27:51.364Z,7.60
2018-12-09T12:30:19.840Z,7.60
2018-12-09T12:32:48.216Z,7.70
2018-12-09T12:35:16.606Z,7.70
2018-12-09T12:37:44.973Z,7.70
2018-12-09T12:40:13.504Z,7.80
2018-12-09T12:42:41.859Z,7.90
2018-12-09T12:45:10.332Z,7.80
2018-12-09T12:47:38.732Z,7.80
2018-12-09T12:50:07.221Z,7.80
2018-12-09T12:52:35.683Z,7.80
2018-12-09T12:55:04.291Z,7.90
2018-12-09T12:57:32.646Z,7.90
2018-12-09T13:00:01.039Z,7.90
2018-12-09T13:02:29.435Z,7.90
2018-12-09T13:04:57.941Z,7.90
2018-12-09T13:07:26.311Z,7.90
2018-12-09T13:09:54.703Z,7.90
2018-12-09T13:12:23.103Z,7.90
2018-12-09T13:14:51.669Z,7.90
2018-12-09T13:17:20.032Z,7.80
2018-12-09T13:19:48.430Z,7.80
2018-12-09T13:22:16.785Z,7.80
2018-12-09T13:24:45.155Z,7.70
2018-12-09T13:27:13.757Z,7.70
2018-12-09T13:29:42.347Z,7.70
2018-12-09T13:32:10.780Z,7.60
2018-12-09T13:34:39.313Z,7.50
2018-12-09T13:37:07.712Z,7.60
2018-12-09T13:39:36.144Z,7.50
2018-12-09T13:42:04.686Z,7.60
2018-12-09T13:44:33.156Z,7.60
2018-12-09T13:47:01.565Z,7.60
2018-12-09T13:49:29.973Z,7.60
2018-12-09T13:51:58.503Z,7.60
2018-12-09T13:54:27.822Z,7.50
2018-12-09T13:56:56.196Z,7.40
2018-12-09T13:59:24.616Z,7.40
2018-12-09T14:01:53.019Z,7.40
2018-12-09T14:04:21.641Z,7.40
2018-12-09T14:06:50.055Z,7.40
2018-12-09T14:09:18.493Z,7.40
2018-12-09T14:11:46.925Z,7.30
2018-12-09T14:14:15.341Z,7.30
2018-12-09T14:16:43.728Z,7.30
2018-12-09T14:19:12.111Z,7.30
2018-12-09T14:21:40.674Z,7.30
2018-12-09T14:24:09.092Z,7.30
2018-12-09T14:26:37.500Z,7.30
2018-12-09T14:29:06.032Z,7.30
2018-12-09T14:31:34.783Z,7.30
2018-12-09T14:34:03.225Z,7.40
2018-12-09T14:36:31.624Z,7.30
2018-12-09T14:39:00.070Z,7.30
2018-12-09T14:41:28.464Z,7.40
2018-12-09T14:43:56.896Z,7.40
2018-12-09T14:46:25.289Z,7.40
2018-12-09T14:48:53.736Z,7.30
2018-12-09T14:51:22.140Z,7.40
2018-12-09T14:53:50.540Z,7.40
2018-12-09T14:56:18.926Z,7.40
2018-12-09T14:58:47.315Z,7.40
2018-12-09T15:01:15.733Z,7.30
2018-12-09T15:03:44.137Z,7.40
2018-12-09T15:06:12.546Z,7.40
2018-12-09T15:08:40.968Z,7.40
2018-12-09T15:11:09.372Z,7.50
2018-12-09T15:13:37.812Z,7.50
2018-12-09T15:16:06.253Z,7.50
2018-12-09T15:18:34.652Z,7.50
2018-12-09T15:21:03.082Z,7.50
2018-12-09T15:23:31.488Z,7.30
2018-12-09T15:25:59.898Z,7.30
2018-12-09T15:28:28.333Z,7.30
2018-12-09T15:30:56.743Z,7.30
2018-12-09T15:33:25.143Z,7.30
2018-12-09T15:35:53.535Z,7.20
2018-12-09T15:38:21.899Z,7.10
2018-12-09T15:40:50.307Z,7.20
2018-12-09T15:43:18.792Z,7.20
2018-12-09T15:45:47.168Z,7.20
2018-12-09T15:48:15.548Z,7.20
2018-12-09T15:50:43.923Z,7.20
2018-12-09T15:53:12.290Z,7.20
2018-12-09T15:55:40.676Z,7.20
2018-12-09T15:58:09.036Z,7.30
2018-12-09T16:00:41.632Z,7.40
2018-12-09T16:03:10.045Z,7.40
2018-12-09T16:05:38.420Z,7.40
2018-12-09T16:08:08.046Z,7.40
2018-12-09T16:10:36.574Z,7.60
2018-12-09T16:13:04.933Z,7.50
2018-12-09T16:15:33.334Z,7.50
2018-12-09T16:18:01.695Z,7.40
2018-12-09T16:20:30.077Z,7.50
2018-12-09T16:22:58.424Z,7.40
2018-12-09T16:25:26.782Z,7.40
2018-12-09T16:27:55.143Z,7.30
2018-12-09T16:30:23.513Z,7.30
2018-12-09T16:32:51.878Z,7.20
2018-12-09T16:35:20.244Z,7.20
2018-12-09T16:37:48.596Z,7.20
2018-12-09T16:40:16.967Z,7.20
2018-12-09T16:42:45.329Z,7.30
2018-12-09T16:45:13.813Z,7.30
2018-12-09T16:47:42.165Z,7.40
2018-12-09T16:50:10.558Z,7.40
2018-12-09T16:52:38.920Z,7.40
2018-12-09T16:55:07.405Z,7.50
2018-12-09T16:57:35.753Z,7.40
2018-12-09T17:00:04.757Z,7.40
2018-12-09T17:02:33.117Z,7.40
2018-12-09T17:05:01.504Z,7.50
2018-12-09T17:07:29.861Z,7.50
2018-12-09T17:09:58.273Z,7.50
2018-12-09T17:12:26.634Z,7.60
2018-12-09T17:14:54.993Z,7.70
2018-12-09T17:17:23.370Z,7.70
2018-12-09T17:19:51.736Z,7.70
2018-12-09T17:22:20.112Z,7.80
2018-12-09T17:24:48.520Z,7.90
2018-12-09T17:27:16.896Z,7.90
2018-12-09T17:29:45.232Z,7.90
2018-12-09T17:32:13.663Z,7.90
2018-12-09T17:34:42.045Z,8.00
2018-12-09T17:37:10.445Z,7.90
2018-12-09T17:39:40.382Z,8.00
2018-12-09T17:42:09.009Z,8.00
2018-12-09T17:44:37.397Z,7.90
2018-12-09T17:47:05.814Z,7.90
2018-12-09T17:49:34.785Z,7.90
2018-12-09T17:52:03.196Z,7.80
2018-12-09T17:54:31.601Z,7.80
2018-12-09T17:57:00.031Z,7.70
2018-12-09T17:59:30.435Z,7.70
2018-12-09T18:01:59.351Z,7.70
2018-12-09T18:04:27.771Z,7.60
2018-12-09T18:06:56.181Z,7.60
2018-12-09T18:09:25.428Z,7.60
2018-12-09T18:11:53.820Z,7.50
2018-12-09T18:14:22.206Z,7.50
2018-12-09T18:16:50.642Z,7.60
2018-12-09T18:19:19.070Z,7.60
2018-12-09T18:21:47.489Z,7.60
2018-12-09T18:24:15.984Z,7.60
2018-12-09T18:26:44.402Z,7.60
2018-12-09T18:29:12.800Z,7.60
2018-12-09T18:31:42.734Z,7.60
2018-12-09T18:34:11.485Z,7.70
2018-12-09T18:36:39.942Z,7.70
2018-12-09T18:39:08.348Z,7.70
2018-12-09T18:41:36.767Z,7.80
2018-12-09T18:44:05.160Z,7.70
2018-12-09T18:46:33.572Z,7.80
2018-12-09T18:49:01.971Z,7.70
2018-12-09T18:51:30.380Z,7.80
2018-12-09T18:53:58.779Z,7.80
2018-12-09T18:56:27.207Z,7.80
2018-12-09T18:58:55.601Z,7.80
2018-12-09T19:01:24.009Z,7.90
2018-12-09T19:03:52.564Z,7.90
2018-12-09T19:06:21.009Z,7.90
2018-12-09T19:08:49.645Z,7.80
2018-12-09T19:11:18.100Z,7.80
2018-12-09T19:13:46.513Z,7.80
2018-12-09T19:16:15.027Z,7.80
2018-12-09T19:18:43.431Z,7.80
2018-12-09T19:21:11.848Z,7.80
2018-12-09T19:23:40.282Z,7.80
2018-12-09T19:26:08.707Z,7.80
2018-12-09T19:28:37.103Z,7.80
2018-12-09T19:31:05.537Z,7.80
2018-12-09T19:33:33.927Z,7.80
2018-12-09T19:36:02.320Z,7.70
2018-12-09T19:38:30.714Z,7.70
2018-12-09T19:40:59.112Z,7.70
2018-12-09T19:43:27.504Z,7.60
2018-12-09T19:45:55.928Z,7.50
2018-12-09T19:48:24.313Z,7.50
2018-12-09T19:50:52.686Z,7.40
2018-12-09T19:53:21.053Z,7.40
2018-12-09T19:55:49.421Z,7.30
2018-12-09T19:58:17.810Z,7.30
2018-12-09T20:00:46.291Z,7.40
2018-12-09T20:03:14.717Z,7.30
2018-12-09T20:05:43.084Z,7.30
2018-12-09T20:08:11.500Z,7.40
2018-12-09T20:10:39.872Z,7.30
2018-12-09T20:13:08.279Z,7.30
2018-12-09T20:15:36.726Z,7.30
2018-12-09T20:18:05.108Z,7.30
2018-12-09T20:20:33.455Z,7.40
2018-12-09T20:23:01.870Z,7.50
2018-12-09T20:25:30.248Z,7.50
2018-12-09T20:27:58.627Z,7.50
2018-12-09T20:30:26.976Z,7.50
2018-12-09T20:32:55.435Z,7.50
2018-12-09T20:35:23.835Z,7.40
2018-12-09T20:37:52.245Z,7.50
2018-12-09T20:40:20.628Z,7.40
2018-12-09T20:42:49.185Z,7.40
2018-12-09T20:45:17.590Z,7.40
2018-12-09T20:47:46.212Z,7.40
2018-12-09T20:50:14.636Z,7.50
2018-12-09T20:52:43.055Z,7.50
2018-12-09T20:55:11.572Z,7.40
2018-12-09T20:57:40.000Z,7.40
2018-12-09T21:00:08.727Z,7.40
2018-12-09T21:02:37.125Z,7.40
2018-12-09T21:05:05.564Z,7.40
2018-12-09T21:07:33.978Z,7.40
2018-12-09T21:10:02.425Z,7.40
2018-12-09T21:12:30.945Z,7.40
2018-12-09T21:14:59.364Z,7.40
2018-12-09T21:17:27.861Z,7.40
2018-12-09T21:19:56.240Z,7.50
2018-12-09T21:22:24.643Z,7.50
2018-12-09T21:24:53.052Z,7.50
2018-12-09T21:27:21.474Z,7.40
2018-12-09T21:29:49.873Z,7.40
2018-12-09T21:32:18.325Z,7.40
2018-12-09T21:34:46.733Z,7.40
2018-12-09T21:37:15.224Z,7.40
2018-12-09T21:39:43.581Z,7.40
2018-12-09T21:42:11.959Z,7.40
2018-12-09T21:44:40.345Z,7.40
2018-12-09T21:47:08.765Z,7.40
2018-12-09T21:49:37.137Z,7.40
2018-12-09T21:52:05.584Z,7.30
2018-12-09T21:54:34.000Z,7.20
2018-12-09T21:57:02.469Z,7.10
2018-12-09T21:59:30.872Z,7.10
2018-12-09T22:01:59.303Z,7.00
2018-12-09T22:04:27.660Z,7.00
2018-12-09T22:06:56.116Z,7.10
2018-12-09T22:09:24.484Z,7.10
2018-12-09T22:11:52.885Z,7.10
2018-12-09T22:14:21.398Z,7.10
2018-12-09T22:16:49.782Z,7.00
2018-12-09T22:19:18.175Z,7.00
2018-12-09T22:21:46.541Z,7.00
2018-12-09T22:24:14.928Z,7.10
2018-12-09T22:26:43.287Z,7.10
2018-12-09T22:29:11.682Z,7.10
2018-12-09T22:31:40.232Z,7.10
2018-12-09T22:34:08.633Z,7.10
2018-12-09T22:36:37.013Z,7.10
2018-12-09T22:39:07.215Z,7.10
2018-12-09T22:41:35.593Z,7.10
2018-12-09T22:44:04.151Z,7.20
2018-12-09T22:46:32.545Z,7.20
2018-12-09T22:49:00.945Z,7.10
2018-12-09T22:51:29.325Z,7.20
2018-12-09T22:53:57.724Z,7.20
2018-12-09T22:56:26.095Z,7.20
2018-12-09T22:58:54.488Z,7.20
2018-12-09T23:01:22.868Z,7.20
2018-12-09T23:03:51.280Z,7.10
2018-12-09T23:06:19.648Z,7.10
2018-12-09T23:08:48.056Z,7.10
2018-12-09T23:11:16.436Z,7.10
2018-12-09T23:13:44.829Z,7.20
2018-12-09T23:16:13.210Z,7.10
2018-12-09T23:18:41.608Z,7.10
2018-12-09T23:21:09.989Z,7.10
2018-12-09T23:23:38.386Z,7.10
2018-12-09T23:26:06.882Z,7.10
2018-12-09T23:28:35.299Z,7.10
2018-12-09T23:31:03.886Z,7.10
2018-12-09T23:33:32.312Z,7.10
2018-12-09T23:36:00.694Z,7.10
2018-12-09T23:38:29.097Z,7.20
2018-12-09T23:40:57.490Z,7.20
2018-12-09T23:43:25.877Z,7.10
2018-12-09T23:45:54.263Z,7.10
2018-12-09T23:48:22.664Z,7.10
2018-12-09T23:50:51.052Z,7.10
2018-12-09T23:53:19.454Z,7.00
2018-12-09T23:55:47.829Z,6.90
2018-12-09T23:58:16.240Z,6.90
